Pagrindinis puslapis
METAR-TAF:

METAR-TAF

Oro uostai :

Aidinas, Turkija

platuma: 37-48-54N, ilguma: 27-53-21E, Aukštis: 31 m

METAR: trūkstamas

Laikas: 21:06 (18:06 UTC)

Prognozė

Ataskaita buvo paskelbta 4 valandos ir 26 minutes, ne 13:40 UTC
Prognozė galioja nuo 15 metu 15 UTC su 15 metu 24 UTC
Vėjas 17 kt iš Rytų
Matomumas 10 km arba daugiau
nėra debesų žemiau 1500 m ir nėra kamuolinių lietaus debesų
Laikinai
nuo 15 metu 16 UTC su 15 metu 20 UTC
Vėjas 20 kt iš Šiaurės Rytų su gūsio iki 30 kt
Tapsmas
nuo 15 metu 22 UTC su 15 metu 24 UTC
Vėjas 2 kt nuo kintamojo kryptimis

TAF: LTBD 151340Z 1515/1524 08017KT CAVOK TEMPO 1516/1520 04020G30KT BECMG 1522/1524 VRB02KT

Orai ataskaitas ir orų prognozės (METAR, TAF).

turimą stotys yra geltonos ir raudonos taškus žemėlapyje.

Perkelti pele per norėdami pamatyti stoties vardą.

Tada spustelėkite, norėdami matyti oro stebėjimo ir prognozės.

Norėdami pakeisti žemėlapį: spustelėkite ant žalios mygtukų su juodo kryžiaus žemyn,; žalią mygtuką su brūkšneliu, jei norite nutolinti; arba žalių rodyklių gretimoms žemėlapius.


METAR-TAF: